createdAt,value
2023-02-22T00:01:47.352Z,142.40
2023-02-22T00:04:16.315Z,147.60
2023-02-22T00:06:45.756Z,145.28
2023-02-22T00:09:14.302Z,137.12
2023-02-22T00:11:48.252Z,143.60
2023-02-22T00:14:18.204Z,145.20
2023-02-22T00:16:46.772Z,135.03
2023-02-22T00:19:15.257Z,136.10
2023-02-22T00:21:45.036Z,136.30
2023-02-22T00:24:20.581Z,139.20
2023-02-22T00:26:53.304Z,139.80
2023-02-22T00:29:22.084Z,146.95
2023-02-22T00:31:50.309Z,144.07
2023-02-22T00:34:18.350Z,139.40
2023-02-22T00:36:49.866Z,140.12
2023-02-22T00:39:17.924Z,138.97
2023-02-22T00:41:45.753Z,135.15
2023-02-22T00:44:13.758Z,139.35
2023-02-22T00:46:41.593Z,134.60
2023-02-22T00:49:09.597Z,134.47
2023-02-22T00:51:37.760Z,140.30
2023-02-22T00:54:05.857Z,141.18
2023-02-22T00:56:35.460Z,139.47
2023-02-22T00:59:05.496Z,131.80
2023-02-22T01:01:33.425Z,127.55
2023-02-22T01:04:01.109Z,138.47
2023-02-22T01:06:29.966Z,144.47
2023-02-22T01:08:59.818Z,136.12
2023-02-22T01:11:27.920Z,139.68
2023-02-22T01:13:56.903Z,133.35
2023-02-22T01:16:24.891Z,139.80
2023-02-22T01:18:52.938Z,140.62
2023-02-22T01:21:21.314Z,145.30
2023-02-22T01:23:49.162Z,140.37
2023-02-22T01:26:16.823Z,137.80
2023-02-22T01:28:44.506Z,134.85
2023-02-22T01:31:13.053Z,137.22
2023-02-22T01:33:41.922Z,144.43
2023-02-22T01:36:11.698Z,139.15
2023-02-22T01:38:39.706Z,141.62
2023-02-22T01:41:07.520Z,137.22
2023-02-22T01:43:37.329Z,135.88
2023-02-22T01:46:08.935Z,136.92
2023-02-22T01:48:44.876Z,142.30
2023-02-22T01:51:19.516Z,136.20
2023-02-22T01:53:50.817Z,142.55
2023-02-22T01:56:20.580Z,137.85
2023-02-22T01:58:55.601Z,134.50
2023-02-22T02:04:00.243Z,143.32
2023-02-22T02:06:31.417Z,144.68
2023-02-22T02:09:13.113Z,145.07
2023-02-22T02:11:42.548Z,143.20
2023-02-22T02:14:12.196Z,137.28
2023-02-22T02:16:43.873Z,141.07
2023-02-22T02:19:27.440Z,138.32
2023-02-22T02:22:26.311Z,140.05
2023-02-22T02:25:16.077Z,136.10
2023-02-22T02:28:13.125Z,140.05
2023-02-22T02:30:55.974Z,136.20
2023-02-22T02:33:39.852Z,134.18
2023-02-22T02:36:31.934Z,147.22
2023-02-22T02:39:12.707Z,136.70
2023-02-22T02:41:47.343Z,141.15
2023-02-22T02:44:39.980Z,136.92
2023-02-22T02:47:11.965Z,136.90
2023-02-22T02:49:59.990Z,139.65
2023-02-22T02:52:29.160Z,141.53
2023-02-22T02:54:58.904Z,137.30
2023-02-22T02:57:26.676Z,133.82
2023-02-22T02:59:55.508Z,132.63
2023-02-22T03:02:42.364Z,144.62
2023-02-22T03:05:49.608Z,147.55
2023-02-22T03:08:26.999Z,135.68
2023-02-22T03:11:17.239Z,140.55
2023-02-22T03:14:05.365Z,141.53
2023-02-22T03:16:43.288Z,142.72
2023-02-22T03:19:17.733Z,142.00
2023-02-22T03:22:10.038Z,140.47
2023-02-22T03:24:53.358Z,141.53
2023-02-22T03:27:26.181Z,146.15
2023-02-22T03:29:58.226Z,138.30
2023-02-22T03:32:30.080Z,136.88
2023-02-22T03:35:07.892Z,140.35
2023-02-22T03:37:48.832Z,137.92
2023-02-22T03:40:26.110Z,141.55
2023-02-22T03:43:00.620Z,140.25
2023-02-22T03:45:32.188Z,139.70
2023-02-22T03:48:10.539Z,138.92
2023-02-22T03:50:39.511Z,144.85
2023-02-22T03:53:07.984Z,145.77
2023-02-22T03:55:37.413Z,140.30
2023-02-22T03:58:09.238Z,148.45
2023-02-22T04:00:38.517Z,136.88
2023-02-22T04:03:06.668Z,139.03
2023-02-22T04:05:34.965Z,142.00
2023-02-22T04:08:03.489Z,130.00
2023-02-22T04:10:33.881Z,141.05
2023-02-22T04:13:01.615Z,141.53
2023-02-22T04:15:30.184Z,142.15
2023-02-22T04:18:00.676Z,148.22
2023-02-22T04:20:29.197Z,132.03
2023-02-22T04:22:59.212Z,149.30
2023-02-22T04:25:29.396Z,139.43
2023-02-22T04:27:57.999Z,142.75
2023-02-22T04:30:29.229Z,144.57
2023-02-22T04:32:57.698Z,139.72
2023-02-22T04:35:26.124Z,155.78
2023-02-22T04:37:54.393Z,150.75
2023-02-22T04:40:24.295Z,139.97
2023-02-22T04:42:51.847Z,134.00
2023-02-22T04:45:19.706Z,139.80
2023-02-22T04:47:48.426Z,142.80
2023-02-22T04:50:17.956Z,141.20
2023-02-22T04:52:46.638Z,138.80
2023-02-22T04:55:14.589Z,129.42
2023-02-22T04:57:46.713Z,140.80
2023-02-22T05:00:17.537Z,142.13
2023-02-22T05:02:46.289Z,132.93
2023-02-22T05:05:20.244Z,140.43
2023-02-22T05:07:49.674Z,142.62
2023-02-22T05:10:18.386Z,134.57
2023-02-22T05:12:46.404Z,140.25
2023-02-22T05:15:21.684Z,145.28
2023-02-22T05:17:50.461Z,140.10
2023-02-22T05:20:25.094Z,137.18
2023-02-22T05:22:53.883Z,136.90
2023-02-22T05:25:22.435Z,135.93
2023-02-22T05:27:53.057Z,142.25
2023-02-22T05:30:27.712Z,142.53
2023-02-22T05:32:56.791Z,147.53
2023-02-22T05:35:24.990Z,139.77
2023-02-22T05:37:53.136Z,133.82
2023-02-22T05:40:24.282Z,142.62
2023-02-22T05:42:53.122Z,136.50
2023-02-22T05:45:23.889Z,146.00
2023-02-22T05:47:54.047Z,143.47
2023-02-22T05:50:22.997Z,140.52
2023-02-22T05:52:51.603Z,137.92
2023-02-22T05:55:22.861Z,137.82
2023-02-22T05:57:52.308Z,136.60
2023-02-22T06:00:24.150Z,134.78
2023-02-22T06:02:59.197Z,137.05
2023-02-22T06:05:27.866Z,143.82
2023-02-22T06:07:56.477Z,137.45
2023-02-22T06:10:24.909Z,134.57
2023-02-22T06:12:53.793Z,137.25
2023-02-22T06:15:23.582Z,137.45
2023-02-22T06:17:51.879Z,141.95
2023-02-22T06:20:23.706Z,139.65
2023-02-22T06:22:52.962Z,133.95
2023-02-22T06:25:27.132Z,143.62
2023-02-22T06:27:55.343Z,139.80
2023-02-22T06:30:24.981Z,135.28
2023-02-22T06:32:53.944Z,137.00
2023-02-22T06:35:22.954Z,148.13
2023-02-22T06:37:54.309Z,145.05
2023-02-22T06:40:22.173Z,136.92
2023-02-22T06:42:50.433Z,175.35
2023-02-22T06:45:19.362Z,148.75
2023-02-22T06:47:48.849Z,135.12
2023-02-22T06:50:26.231Z,142.03
2023-02-22T06:52:54.556Z,132.00
2023-02-22T06:55:25.565Z,133.67
2023-02-22T06:57:55.872Z,132.75
2023-02-22T07:00:26.090Z,135.03
2023-02-22T07:02:56.407Z,133.72
2023-02-22T07:05:27.097Z,146.30
2023-02-22T07:07:58.680Z,145.15
2023-02-22T07:10:32.365Z,148.47
2023-02-22T07:13:01.034Z,138.45
2023-02-22T07:15:31.193Z,139.35
2023-02-22T07:18:00.528Z,132.97
2023-02-22T07:20:30.689Z,126.50
2023-02-22T07:22:58.691Z,132.20
2023-02-22T07:25:26.724Z,149.90
2023-02-22T07:27:56.391Z,137.35
2023-02-22T07:30:32.039Z,145.90
2023-02-22T07:33:01.859Z,151.68
2023-02-22T07:35:33.182Z,143.25
2023-02-22T07:38:01.900Z,132.37
2023-02-22T07:40:30.135Z,133.93
2023-02-22T07:43:00.349Z,135.22
2023-02-22T07:45:30.956Z,128.72
2023-02-22T07:48:00.001Z,133.30
2023-02-22T07:50:31.530Z,140.80
2023-02-22T07:53:05.508Z,141.30
2023-02-22T07:55:34.729Z,143.00
2023-02-22T07:58:05.862Z,144.32
2023-02-22T08:00:41.043Z,140.25
2023-02-22T08:05:40.206Z,144.17
2023-02-22T08:08:08.808Z,153.07
2023-02-22T08:10:37.245Z,148.55
2023-02-22T08:13:06.388Z,151.25
2023-02-22T08:15:40.030Z,149.05
2023-02-22T08:18:10.501Z,159.13
2023-02-22T08:20:39.805Z,163.50
2023-02-22T08:23:08.037Z,160.12
2023-02-22T08:25:36.061Z,169.65
2023-02-22T08:28:07.417Z,159.35
2023-02-22T08:30:39.686Z,162.77
2023-02-22T08:33:06.949Z,152.78
2023-02-22T08:35:34.705Z,142.57
2023-02-22T08:38:06.057Z,160.60
2023-02-22T08:40:38.931Z,151.25
2023-02-22T08:43:07.994Z,158.50
2023-02-22T08:45:36.152Z,159.32
2023-02-22T08:48:07.073Z,159.43
2023-02-22T08:50:35.726Z,160.60
2023-02-22T08:53:06.098Z,153.55
2023-02-22T08:55:36.279Z,157.03
2023-02-22T08:58:06.547Z,158.95
2023-02-22T09:00:34.553Z,165.47
2023-02-22T09:03:08.154Z,159.00
2023-02-22T09:05:36.743Z,170.12
2023-02-22T09:08:06.291Z,169.87
2023-02-22T09:10:35.612Z,171.13
2023-02-22T09:13:04.558Z,160.18
2023-02-22T09:15:33.589Z,163.00
2023-02-22T09:18:01.896Z,163.92
2023-02-22T09:20:30.071Z,159.40
2023-02-22T09:22:59.004Z,156.75
2023-02-22T09:25:28.282Z,150.72
2023-02-22T09:27:57.319Z,145.95
2023-02-22T09:30:30.777Z,136.52
2023-02-22T09:33:05.077Z,149.30
2023-02-22T09:35:36.446Z,140.50
2023-02-22T09:38:06.872Z,135.00
2023-02-22T09:40:39.280Z,113.85
2023-02-22T09:43:24.333Z,110.10
2023-02-22T09:48:26.182Z,125.00
2023-02-22T09:50:57.699Z,122.58
2023-02-22T09:53:42.127Z,122.00
2023-02-22T09:56:13.544Z,118.20
2023-02-22T09:58:46.849Z,118.95
2023-02-22T10:01:26.670Z,112.88
2023-02-22T10:04:07.667Z,113.37
2023-02-22T10:06:36.089Z,120.75
2023-02-22T10:09:06.835Z,119.05
2023-02-22T10:11:55.937Z,116.93
2023-02-22T10:14:47.771Z,138.25
2023-02-22T10:17:22.834Z,131.22
2023-02-22T10:20:12.896Z,135.75
2023-02-22T10:22:52.154Z,126.25
2023-02-22T10:25:24.786Z,123.33
2023-02-22T10:27:56.447Z,122.82
2023-02-22T10:30:33.461Z,123.62
2023-02-22T10:33:07.466Z,125.55
2023-02-22T10:38:13.945Z,126.82
2023-02-22T10:40:48.399Z,127.32
2023-02-22T10:43:16.336Z,117.25
2023-02-22T10:45:45.052Z,126.02
2023-02-22T10:48:19.262Z,127.12
2023-02-22T10:50:48.930Z,117.75
2023-02-22T10:53:16.848Z,114.77
2023-02-22T10:56:08.733Z,105.95
2023-02-22T10:58:46.066Z,109.10
2023-02-22T11:01:29.753Z,110.30
2023-02-22T11:04:15.566Z,114.52
2023-02-22T11:06:46.524Z,114.75
2023-02-22T11:09:23.064Z,113.52
2023-02-22T11:11:55.639Z,109.40
2023-02-22T11:14:29.366Z,111.92
2023-02-22T11:16:59.876Z,116.82
2023-02-22T11:19:33.065Z,117.17
2023-02-22T11:22:04.750Z,119.50
2023-02-22T11:24:43.556Z,123.70
2023-02-22T11:27:05.945Z,121.67
2023-02-22T11:29:37.117Z,112.40
2023-02-22T11:32:19.499Z,116.17
2023-02-22T11:34:50.825Z,123.65
2023-02-22T11:37:31.017Z,117.25
2023-02-22T11:40:20.123Z,115.03
2023-02-22T11:42:50.406Z,115.62
2023-02-22T11:45:22.214Z,111.60
2023-02-22T11:47:56.597Z,119.45
2023-02-22T11:50:33.994Z,114.97
2023-02-22T11:53:08.634Z,122.80
2023-02-22T11:55:45.868Z,117.82
2023-02-22T11:58:23.195Z,112.75
2023-02-22T12:01:12.492Z,116.55
2023-02-22T12:03:59.116Z,118.37
2023-02-22T12:06:31.086Z,116.08
2023-02-22T12:09:18.933Z,127.05
2023-02-22T12:12:12.224Z,119.50
2023-02-22T12:14:56.261Z,115.75
2023-02-22T12:17:40.207Z,114.25
2023-02-22T12:20:20.519Z,115.67
2023-02-22T12:22:57.867Z,116.45
2023-02-22T12:25:30.730Z,110.80
2023-02-22T12:28:07.724Z,120.92
2023-02-22T12:30:36.742Z,124.10
2023-02-22T12:33:11.437Z,116.15
2023-02-22T12:35:43.673Z,128.82
2023-02-22T12:38:23.999Z,122.50
2023-02-22T12:41:04.803Z,119.97
2023-02-22T12:43:42.606Z,115.45
2023-02-22T12:46:30.902Z,131.78
2023-02-22T12:49:18.914Z,120.65
2023-02-22T12:52:03.071Z,120.42
2023-02-22T12:54:36.777Z,125.27
2023-02-22T12:57:14.190Z,118.65
2023-02-22T12:59:51.235Z,126.38
2023-02-22T13:02:32.042Z,123.60
2023-02-22T13:05:02.031Z,122.53
2023-02-22T13:07:42.768Z,127.07
2023-02-22T13:10:41.722Z,119.40
2023-02-22T13:13:31.907Z,125.40
2023-02-22T13:16:22.219Z,119.77
2023-02-22T13:19:04.464Z,128.45
2023-02-22T13:21:42.329Z,123.22
2023-02-22T13:24:25.962Z,123.02
2023-02-22T13:27:06.581Z,123.30
2023-02-22T13:29:44.935Z,120.90
2023-02-22T13:32:25.921Z,128.97
2023-02-22T13:35:14.694Z,119.85
2023-02-22T13:38:05.643Z,125.47
2023-02-22T13:40:43.529Z,124.55
2023-02-22T13:43:34.860Z,132.05
2023-02-22T13:46:17.628Z,127.60
2023-02-22T13:48:49.325Z,124.30
2023-02-22T13:51:44.900Z,121.57
2023-02-22T13:54:25.816Z,124.65
2023-02-22T13:56:56.895Z,120.40
2023-02-22T13:59:36.304Z,127.65
2023-02-22T14:02:08.282Z,122.82
2023-02-22T14:04:39.961Z,115.97
2023-02-22T14:07:26.792Z,124.70
2023-02-22T14:09:56.896Z,125.15
2023-02-22T14:12:34.357Z,123.45
2023-02-22T14:15:31.270Z,118.62
2023-02-22T14:17:48.027Z,123.70
2023-02-22T14:20:22.541Z,124.72
2023-02-22T14:22:53.188Z,113.30
2023-02-22T14:25:43.274Z,123.38
2023-02-22T14:28:31.495Z,133.27
2023-02-22T14:31:25.818Z,134.22
2023-02-22T14:34:05.118Z,135.07
2023-02-22T14:36:39.640Z,126.92
2023-02-22T14:39:23.667Z,119.65
2023-02-22T14:42:04.320Z,123.15
2023-02-22T14:44:36.277Z,119.02
2023-02-22T14:47:07.249Z,121.37
2023-02-22T14:49:38.646Z,119.57
2023-02-22T14:52:13.625Z,116.93
2023-02-22T14:55:21.504Z,121.22
2023-02-22T14:58:08.970Z,118.05
2023-02-22T15:00:46.216Z,120.55
2023-02-22T15:03:38.789Z,116.88
2023-02-22T15:06:22.105Z,117.13
2023-02-22T15:08:53.827Z,124.12
2023-02-22T15:11:34.608Z,113.25
2023-02-22T15:14:03.267Z,114.20
2023-02-22T15:16:34.086Z,127.15
2023-02-22T15:19:09.480Z,129.78
2023-02-22T15:21:41.304Z,118.05
2023-02-22T15:24:11.821Z,114.28
2023-02-22T15:26:58.948Z,113.88
2023-02-22T15:29:18.668Z,117.72
2023-02-22T15:31:48.446Z,115.32
2023-02-22T15:34:21.569Z,115.12
2023-02-22T15:36:54.287Z,117.30
2023-02-22T15:39:29.939Z,110.90
2023-02-22T15:42:09.850Z,117.90
2023-02-22T15:44:43.807Z,112.83
2023-02-22T15:47:18.215Z,109.48
2023-02-22T15:49:46.357Z,117.08
2023-02-22T15:52:23.526Z,121.80
2023-02-22T15:54:53.912Z,115.92
2023-02-22T15:57:25.554Z,114.65
2023-02-22T15:59:57.557Z,122.00
2023-02-22T16:02:44.073Z,110.55
2023-02-22T16:05:14.686Z,111.85
2023-02-22T16:07:46.619Z,114.97
2023-02-22T16:10:30.618Z,111.37
2023-02-22T16:13:32.191Z,122.78
2023-02-22T16:16:06.553Z,110.32
2023-02-22T16:18:39.492Z,117.25
2023-02-22T16:21:21.767Z,119.90
2023-02-22T16:24:01.375Z,113.95
2023-02-22T16:26:37.012Z,114.17
2023-02-22T16:29:08.647Z,116.08
2023-02-22T16:31:41.651Z,112.05
2023-02-22T16:34:10.530Z,110.57
2023-02-22T16:36:44.923Z,119.53
2023-02-22T16:39:22.837Z,121.85
2023-02-22T16:41:51.949Z,115.12
2023-02-22T16:44:20.351Z,120.13
2023-02-22T16:46:48.008Z,112.85
2023-02-22T16:49:16.480Z,122.22
2023-02-22T16:51:56.413Z,113.88
2023-02-22T16:54:34.746Z,116.28
2023-02-22T16:57:04.364Z,124.20
2023-02-22T16:59:36.068Z,125.78
2023-02-22T17:02:08.364Z,120.90
2023-02-22T17:04:37.877Z,114.42
2023-02-22T17:07:05.545Z,122.13
2023-02-22T17:09:33.817Z,124.97
2023-02-22T17:12:03.343Z,129.90
2023-02-22T17:14:34.059Z,137.92
2023-02-22T17:17:02.866Z,130.85
2023-02-22T17:19:31.194Z,125.70
2023-02-22T17:21:59.699Z,127.53
2023-02-22T17:24:31.373Z,120.22
2023-02-22T17:26:59.927Z,139.07
2023-02-22T17:29:29.060Z,159.00
2023-02-22T17:31:57.363Z,298.70
2023-02-22T17:34:25.473Z,234.05
2023-02-22T17:36:53.872Z,179.00
2023-02-22T17:39:22.407Z,175.42
2023-02-22T17:41:54.785Z,186.65
2023-02-22T17:44:22.559Z,167.90
2023-02-22T17:46:50.950Z,147.25
2023-02-22T17:49:32.937Z,157.35
2023-02-22T17:52:02.576Z,148.40
2023-02-22T17:54:30.130Z,139.88
2023-02-22T17:57:19.064Z,123.58
2023-02-22T18:00:02.962Z,128.47
2023-02-22T18:02:34.650Z,125.82
2023-02-22T18:05:02.636Z,121.10
2023-02-22T18:07:32.498Z,122.62
2023-02-22T18:10:00.177Z,127.67
2023-02-22T18:12:28.149Z,121.25
2023-02-22T18:14:56.809Z,125.65
2023-02-22T18:17:25.436Z,130.97
2023-02-22T18:19:53.311Z,121.15
2023-02-22T18:22:21.060Z,131.15
2023-02-22T18:24:49.080Z,129.15
2023-02-22T18:27:25.516Z,131.63
2023-02-22T18:29:53.208Z,129.07
2023-02-22T18:32:21.541Z,121.30
2023-02-22T18:34:50.227Z,136.65
2023-02-22T18:37:20.196Z,126.30
2023-02-22T18:39:48.814Z,140.62
2023-02-22T18:42:17.924Z,131.18
2023-02-22T18:44:50.211Z,128.38
2023-02-22T18:47:19.811Z,150.07
2023-02-22T18:49:48.879Z,146.02
2023-02-22T18:52:16.755Z,138.25
2023-02-22T18:54:44.730Z,134.85
2023-02-22T18:57:13.429Z,136.72
2023-02-22T18:59:42.627Z,141.22
2023-02-22T19:02:13.882Z,127.40
2023-02-22T19:04:45.084Z,128.02
2023-02-22T19:07:15.089Z,126.33
2023-02-22T19:09:44.016Z,127.55
2023-02-22T19:12:12.489Z,128.85
2023-02-22T19:14:42.874Z,133.32
2023-02-22T19:17:12.690Z,127.42
2023-02-22T19:20:00.512Z,135.63
2023-02-22T19:22:32.795Z,138.37
2023-02-22T19:25:14.482Z,146.75
2023-02-22T19:27:43.761Z,140.52
2023-02-22T19:32:43.501Z,142.07
2023-02-22T19:35:12.999Z,142.47
2023-02-22T19:37:41.290Z,145.60
2023-02-22T19:40:10.355Z,134.95
2023-02-22T19:42:41.181Z,141.73
2023-02-22T19:45:10.101Z,142.25
2023-02-22T19:47:58.064Z,138.30
2023-02-22T19:50:27.154Z,138.32
2023-02-22T19:52:56.202Z,161.73
2023-02-22T19:55:24.259Z,160.80
2023-02-22T19:57:55.493Z,159.87
2023-02-22T20:00:28.199Z,149.27
2023-02-22T20:03:03.856Z,154.10
2023-02-22T20:05:33.488Z,154.10
2023-02-22T20:08:01.525Z,164.65
2023-02-22T20:10:30.089Z,140.05
2023-02-22T20:12:58.734Z,138.85
2023-02-22T20:15:28.337Z,138.55
2023-02-22T20:17:56.172Z,132.72
2023-02-22T20:20:28.452Z,135.28
2023-02-22T20:22:57.336Z,133.55
2023-02-22T20:25:25.240Z,134.95
2023-02-22T20:27:53.700Z,126.60
2023-02-22T20:30:23.300Z,134.72
2023-02-22T20:32:55.114Z,135.97
2023-02-22T20:35:23.167Z,137.15
2023-02-22T20:37:52.227Z,139.80
2023-02-22T20:40:20.220Z,149.55
2023-02-22T20:42:48.364Z,136.35
2023-02-22T20:45:18.988Z,133.03
2023-02-22T20:47:46.668Z,142.25
2023-02-22T20:50:15.119Z,132.32
2023-02-22T20:52:43.002Z,127.65
2023-02-22T20:55:12.006Z,131.95
2023-02-22T20:57:43.393Z,140.43
2023-02-22T21:00:13.546Z,130.47
2023-02-22T21:02:41.735Z,138.72
2023-02-22T21:05:11.042Z,141.85
2023-02-22T21:07:42.224Z,153.23
2023-02-22T21:10:10.594Z,141.30
2023-02-22T21:12:38.854Z,138.32
2023-02-22T21:15:07.971Z,136.80
2023-02-22T21:17:37.081Z,146.25
2023-02-22T21:20:08.732Z,131.40
2023-02-22T21:22:36.962Z,137.20
2023-02-22T21:25:05.081Z,145.25
2023-02-22T21:27:33.715Z,152.12
2023-02-22T21:30:02.959Z,155.63
2023-02-22T21:32:30.896Z,157.32
2023-02-22T21:34:58.653Z,154.40
2023-02-22T21:37:28.299Z,165.60
2023-02-22T21:39:56.227Z,151.50
2023-02-22T21:42:25.248Z,164.75
2023-02-22T21:44:55.924Z,165.55
2023-02-22T21:47:24.370Z,146.95
2023-02-22T21:49:52.525Z,137.57
2023-02-22T21:52:20.397Z,137.28
2023-02-22T21:54:49.028Z,140.30
2023-02-22T21:57:18.463Z,156.57
2023-02-22T21:59:46.739Z,145.12
2023-02-22T22:02:14.605Z,139.10
2023-02-22T22:04:43.005Z,157.62
2023-02-22T22:07:11.456Z,148.78
2023-02-22T22:09:41.115Z,137.70
2023-02-22T22:12:10.913Z,142.55
2023-02-22T22:14:39.040Z,143.62
2023-02-22T22:17:08.998Z,136.82
2023-02-22T22:19:41.973Z,143.78
2023-02-22T22:22:09.685Z,141.88
2023-02-22T22:24:40.296Z,154.93
2023-02-22T22:27:10.467Z,149.32
2023-02-22T22:29:38.379Z,153.23
2023-02-22T22:32:07.025Z,145.17
2023-02-22T22:34:38.183Z,147.05
2023-02-22T22:37:06.225Z,148.07
2023-02-22T22:39:35.709Z,147.00
2023-02-22T22:42:03.501Z,141.07
2023-02-22T22:44:33.768Z,136.70
2023-02-22T22:47:06.080Z,144.15
2023-02-22T22:49:36.171Z,141.85
2023-02-22T22:52:04.842Z,149.57
2023-02-22T22:54:33.162Z,136.40
2023-02-22T22:57:02.578Z,137.20
2023-02-22T22:59:31.064Z,139.60
2023-02-22T23:01:59.909Z,136.90
2023-02-22T23:04:28.310Z,137.15
2023-02-22T23:06:57.525Z,137.20
2023-02-22T23:09:28.106Z,138.30
2023-02-22T23:12:06.073Z,128.68
2023-02-22T23:14:35.160Z,129.68
2023-02-22T23:17:04.546Z,122.15
2023-02-22T23:19:35.632Z,122.98
2023-02-22T23:22:05.708Z,128.00
2023-02-22T23:24:36.594Z,123.90
2023-02-22T23:27:13.653Z,116.70
2023-02-22T23:29:43.247Z,119.97
2023-02-22T23:32:11.226Z,127.53
2023-02-22T23:34:41.964Z,113.30
2023-02-22T23:37:11.019Z,116.25
2023-02-22T23:39:39.521Z,124.22
2023-02-22T23:42:10.852Z,110.68
2023-02-22T23:44:40.636Z,120.95
2023-02-22T23:47:09.891Z,117.50
2023-02-22T23:49:38.854Z,111.52
2023-02-22T23:52:07.794Z,122.20
2023-02-22T23:54:40.561Z,117.72
2023-02-22T23:57:08.984Z,118.28
2023-02-22T23:59:42.172Z,130.10
